Time;durP1;ratioP1;P1;durP2;ratioP2;P2;SDS_P1;SDS_P2;PMS_P1;PMS_P2;Temp;Humidity;BMP_temperature;BMP_pressure;BME280_temperature;BME280_humidity;BME280_pressure;Samples;Min_cycle;Max_cycle;Signal;HPM_P1;HPM_P2
2023/10/19 00:00:50;;;;;;;4.03;2.40;;;;;;;10.61;100.00;98389.84;5050145;28;20197;-61
2023/10/19 00:03:17;;;;;;;2.88;2.67;;;;;;;10.69;100.00;98402.25;5050370;28;20181;-59
2023/10/19 00:05:50;;;;;;;2.70;2.50;;;;;;;10.62;100.00;98390.69;5050072;28;20192;-59
2023/10/19 00:08:19;;;;;;;3.92;2.72;;;;;;;10.67;100.00;98365.28;5050196;28;20260;-59
2023/10/19 00:10:48;;;;;;;2.50;2.40;;;;;;;10.77;100.00;98394.78;5049906;28;20185;-59
2023/10/19 00:13:14;;;;;;;3.13;2.65;;;;;;;10.71;100.00;98379.66;5049594;28;20324;-58
2023/10/19 00:15:48;;;;;;;2.90;2.70;;;;;;;10.81;100.00;98404.78;5049866;28;20218;-59
2023/10/19 00:20:53;;;;;;;3.92;2.78;;;;;;;10.78;100.00;98378.31;5067163;28;20283;-60
2023/10/19 00:23:31;;;;;;;2.70;2.50;;;;;;;10.94;100.00;98386.66;5112683;28;20175;-60
2023/10/19 00:25:59;;;;;;;3.03;2.83;;;;;;;10.86;100.00;98374.25;5112622;28;20216;-59
2023/10/19 00:28:26;;;;;;;2.65;2.45;;;;;;;11.04;100.00;98385.09;5112580;28;20171;-58
2023/10/19 00:30:53;;;;;;;2.40;2.30;;;;;;;10.96;100.00;98379.59;5069313;28;20189;-58
2023/10/19 00:33:22;;;;;;;2.78;2.58;;;;;;;10.91;100.00;98377.34;5069450;28;20192;-58
2023/10/19 00:35:58;;;;;;;2.63;2.42;;;;;;;10.71;100.00;98343.44;5069444;28;20656;-59
2023/10/19 00:38:27;;;;;;;2.58;2.47;;;;;;;10.94;100.00;98371.13;5068633;28;20176;-59
2023/10/19 00:40:58;;;;;;;2.80;2.60;;;;;;;11.04;100.00;98377.31;5069310;28;20193;-59
2023/10/19 00:43:29;;;;;;;2.70;2.50;;;;;;;10.94;100.00;98361.59;5069314;28;20263;-58
2023/10/19 00:45:54;;;;;;;2.70;2.42;;;;;;;11.04;100.00;98365.19;5069226;28;20716;-59
2023/10/19 00:48:23;;;;;;;4.13;3.17;;;;;;;10.91;100.00;98337.72;5069225;28;20181;-59
2023/10/19 00:50:55;;;;;;;3.47;3.17;;;;;;;11.08;100.00;98345.09;5069266;28;20189;-58
2023/10/19 00:53:22;;;;;;;3.28;3.08;;;;;;;10.82;100.00;98328.84;5029107;28;20284;-59
2023/10/19 00:55:47;;;;;;;3.33;3.03;;;;;;;10.90;100.00;98352.41;5029201;28;20183;-59
2023/10/19 00:58:17;;;;;;;5.65;2.97;;;;;;;10.67;100.00;98350.59;5029050;28;20245;-59
2023/10/19 01:00:44;;;;;;;3.78;2.95;;;;;;;10.58;100.00;98338.31;5030316;28;20182;-59
2023/10/19 01:03:13;;;;;;;4.93;3.22;;;;;;;10.70;100.00;98354.72;5069078;28;20224;-59
2023/10/19 01:05:39;;;;;;;2.13;2.03;;;;;;;10.66;100.00;98340.34;5069159;28;20192;-59
2023/10/19 01:08:23;;;;;;;2.05;1.95;;;;;;;10.68;100.00;98354.03;5069025;28;20193;-59
2023/10/19 01:10:52;;;;;;;2.13;1.52;;;;;;;10.28;100.00;98303.41;5069041;28;20180;-59
2023/10/19 01:13:19;;;;;;;2.17;1.67;;;;;;;10.32;100.00;98304.81;5068681;28;20258;-59
2023/10/19 01:15:49;;;;;;;2.00;1.90;;;;;;;10.45;100.00;98306.44;5068837;28;20213;-59
2023/10/19 01:18:15;;;;;;;3.25;2.35;;;;;;;10.53;100.00;98308.50;5068743;28;20225;-59
2023/10/19 01:20:51;;;;;;;2.30;2.13;;;;;;;10.43;100.00;98304.91;5068861;28;20259;-59
2023/10/19 01:23:50;;;;;;;2.42;2.33;;;;;;;10.51;100.00;98315.56;5072803;28;20227;-59
2023/10/19 01:26:08;;;;;;;2.45;2.28;;;;;;;10.36;100.00;98306.25;5107579;28;20234;-59
2023/10/19 01:28:42;;;;;;;2.50;2.30;;;;;;;10.50;100.00;98311.31;5111763;28;20258;-60
2023/10/19 01:31:16;;;;;;;2.75;2.55;;;;;;;10.68;100.00;98334.13;5111806;28;20179;-59
2023/10/19 01:33:44;;;;;;;2.58;2.47;;;;;;;10.52;100.00;98319.78;5111671;28;20329;-60
2023/10/19 01:38:48;;;;;;;2.80;2.50;;;;;;;10.46;100.00;98302.13;5111771;28;20551;-60
2023/10/19 01:41:14;;;;;;;2.72;2.53;;;;;;;10.74;100.00;98332.91;5111615;28;20180;-60
2023/10/19 01:43:43;;;;;;;2.28;2.08;;;;;;;10.48;100.00;98289.91;5111637;28;20175;-60
2023/10/19 01:46:12;;;;;;;2.70;2.50;;;;;;;10.71;100.00;98335.69;5111531;28;20175;-59
2023/10/19 01:48:41;;;;;;;2.40;2.20;;;;;;;10.53;100.00;98311.09;5112989;28;20182;-59
2023/10/19 01:51:13;;;;;;;2.58;2.38;;;;;;;10.53;100.00;98303.34;5115734;28;20564;-59
2023/10/19 01:53:42;;;;;;;3.00;2.70;;;;;;;10.53;100.00;98308.50;5115763;28;20556;-59
2023/10/19 01:56:12;;;;;;;2.47;2.38;;;;;;;10.50;100.00;98304.38;5115537;28;20190;-58
2023/10/19 01:58:39;;;;;;;2.38;2.28;;;;;;;10.38;100.00;98281.13;5115832;28;20183;-59
2023/10/19 02:03:43;;;;;;;2.67;2.47;;;;;;;10.54;100.00;98302.41;5115583;28;20175;-59
2023/10/19 02:06:26;;;;;;;1.98;1.88;;;;;;;10.39;100.00;98306.06;5115483;28;20179;-60
2023/10/19 02:09:00;;;;;;;2.35;2.05;;;;;;;10.23;100.00;98290.78;5115509;28;20225;-60
2023/10/19 02:11:27;;;;;;;1.67;1.55;;;;;;;10.26;100.00;98297.47;5115414;28;20609;-59
2023/10/19 02:13:59;;;;;;;1.58;1.48;;;;;;;10.44;100.00;98341.00;5114949;28;20286;-59
2023/10/19 02:16:25;;;;;;;1.73;1.63;;;;;;;10.18;100.00;98302.38;5114887;28;20560;-58
2023/10/19 02:18:51;;;;;;;2.28;2.15;;;;;;;10.38;100.00;98340.59;5114983;28;20187;-59
2023/10/19 02:21:29;;;;;;;1.70;1.60;;;;;;;10.35;100.00;98330.47;5114896;28;20225;-58
2023/10/19 02:23:54;;;;;;;2.15;2.05;;;;;;;10.19;100.00;98320.38;5115448;28;20292;-58
2023/10/19 02:26:22;;;;;;;2.50;2.30;;;;;;;10.14;100.00;98317.25;5114726;28;20208;-58
2023/10/19 02:28:50;;;;;;;1.83;1.73;;;;;;;10.23;100.00;98329.56;5114993;28;20221;-59
2023/10/19 02:31:24;;;;;;;2.75;1.60;;;;;;;10.28;100.00;98339.59;5114928;28;20168;-58
2023/10/19 02:34:00;;;;;;;2.72;1.77;;;;;;;9.98;100.00;98302.88;5051572;28;20218;-59
2023/10/19 02:36:30;;;;;;;4.30;1.90;;;;;;;10.15;100.00;98344.75;5051696;28;20268;-59
2023/10/19 02:39:00;;;;;;;1.70;1.60;;;;;;;10.07;100.00;98304.84;5051619;28;20198;-59
2023/10/19 02:41:28;;;;;;;2.58;1.90;;;;;;;10.24;100.00;98332.97;5051646;28;20181;-59
2023/10/19 02:46:34;;;;;;;1.73;1.63;;;;;;;10.30;100.00;98332.56;5051730;28;20182;-59
2023/10/19 02:49:04;;;;;;;2.20;2.10;;;;;;;10.21;100.00;98339.19;5051563;28;20196;-59
2023/10/19 02:51:33;;;;;;;2.30;1.98;;;;;;;9.99;100.00;98296.78;5051433;28;20178;-59
2023/10/19 02:54:02;;;;;;;1.70;1.60;;;;;;;10.19;100.00;98340.22;5051417;28;20221;-59
2023/10/19 02:56:29;;;;;;;3.03;1.77;;;;;;;10.04;100.00;98316.22;5051197;28;20324;-58
2023/10/19 02:59:01;;;;;;;1.70;1.60;;;;;;;9.81;100.00;98298.81;5051205;28;20202;-58
2023/10/19 03:01:34;;;;;;;1.80;1.70;;;;;;;10.10;100.00;98348.59;5050398;28;20185;-58
2023/10/19 03:04:01;;;;;;;3.40;2.05;;;;;;;10.09;100.00;98344.38;5061038;28;20202;-58
2023/10/19 03:06:32;;;;;;;1.48;1.38;;;;;;;10.15;100.00;98347.34;5114199;28;20180;-59
2023/10/19 03:08:58;;;;;;;2.03;1.92;;;;;;;9.80;100.00;98304.13;5114286;28;20327;-59
2023/10/19 03:11:25;;;;;;;2.00;1.90;;;;;;;10.05;100.00;98338.56;5114113;28;20180;-59
2023/10/19 03:13:51;;;;;;;2.08;1.95;;;;;;;10.14;100.00;98344.84;5113951;28;20207;-59
2023/10/19 03:16:20;;;;;;;2.70;1.73;;;;;;;9.92;100.00;98305.88;5114323;28;20665;-59
2023/10/19 03:18:46;;;;;;;1.95;1.75;;;;;;;10.22;100.00;98350.34;5114053;28;20171;-59
2023/10/19 03:21:12;;;;;;;2.05;1.95;;;;;;;10.11;100.00;98339.91;5113982;28;20175;-60
2023/10/19 03:23:37;;;;;;;1.90;1.80;;;;;;;10.03;100.00;98316.28;5113892;28;20176;-59
2023/10/19 03:28:49;;;;;;;2.65;2.17;;;;;;;10.17;100.00;98352.44;5113560;28;20176;-59
2023/10/19 03:31:17;;;;;;;1.75;1.65;;;;;;;10.11;100.00;98330.38;5113515;28;20172;-59
2023/10/19 03:33:49;;;;;;;1.80;1.70;;;;;;;10.10;100.00;98349.41;5070087;28;20621;-58
2023/10/19 03:36:15;;;;;;;1.67;1.58;;;;;;;10.10;100.00;98351.19;5070234;28;20698;-60
2023/10/19 03:38:40;;;;;;;2.10;1.90;;;;;;;9.85;100.00;98305.44;5030021;28;20202;-60
2023/10/19 03:41:08;;;;;;;1.88;1.58;;;;;;;10.12;100.00;98338.97;5010232;28;20728;-60
2023/10/19 03:43:34;;;;;;;2.30;1.55;;;;;;;10.17;100.00;98347.25;5010392;28;20285;-60
2023/10/19 03:46:06;;;;;;;1.63;1.52;;;;;;;10.06;100.00;98318.72;5010288;28;20196;-60
2023/10/19 03:48:36;;;;;;;1.90;1.80;;;;;;;10.17;100.00;98342.09;5010253;28;20297;-60
2023/10/19 03:51:02;;;;;;;1.90;1.80;;;;;;;10.07;100.00;98319.56;5010204;28;20202;-60
2023/10/19 03:53:28;;;;;;;2.20;2.10;;;;;;;10.17;100.00;98329.97;5010033;28;20612;-58
2023/10/19 03:55:54;;;;;;;1.77;1.67;;;;;;;10.27;100.00;98340.53;5010120;28;20195;-59
2023/10/19 03:58:20;;;;;;;1.77;1.70;;;;;;;10.18;100.00;98339.41;5010003;28;20571;-59
2023/10/19 04:00:49;;;;;;;1.90;1.80;;;;;;;10.15;100.00;98331.03;5010027;28;20290;-59
2023/10/19 04:03:17;;;;;;;1.75;1.65;;;;;;;10.02;100.00;98301.72;5009938;28;20295;-59
2023/10/19 04:05:46;;;;;;;1.88;1.77;;;;;;;10.22;100.00;98330.47;5064765;28;20220;-60
2023/10/19 04:08:14;;;;;;;2.22;2.03;;;;;;;10.05;100.00;98306.72;5069527;28;20181;-59
2023/10/19 04:11:08;;;;;;;1.83;1.70;;;;;;;10.28;100.00;98324.09;5106804;28;20217;-60
2023/10/19 04:13:31;;;;;;;1.85;1.75;;;;;;;10.37;100.00;98337.19;5112080;28;20294;-59
2023/10/19 04:15:56;;;;;;;2.00;1.90;;;;;;;10.28;100.00;98314.53;5112542;28;20274;-60
2023/10/19 04:18:25;;;;;;;3.75;3.55;;;;;;;10.39;100.00;98331.94;5112133;28;20638;-59
2023/10/19 04:23:16;;;;;;;3.20;2.00;;;;;;;10.19;100.00;98319.53;5112591;28;20233;-59
2023/10/19 04:25:41;;;;;;;2.08;1.98;;;;;;;10.26;100.00;98331.09;5112203;28;20176;-59
2023/10/19 04:28:07;;;;;;;1.60;1.50;;;;;;;10.02;100.00;98299.97;5112215;28;20176;-58
2023/10/19 04:30:37;;;;;;;1.90;1.80;;;;;;;9.97;100.00;98308.94;5112262;28;20203;-58
2023/10/19 04:33:02;;;;;;;2.08;1.98;;;;;;;10.16;100.00;98330.91;5112132;28;20176;-59
2023/10/19 04:35:34;;;;;;;2.28;1.88;;;;;;;10.10;100.00;98320.97;5111028;28;20294;-58
2023/10/19 04:37:59;;;;;;;2.10;1.42;;;;;;;9.93;100.00;98297.19;5112069;28;20620;-58
2023/10/19 04:40:25;;;;;;;1.85;1.75;;;;;;;9.99;100.00;98326.00;5111963;28;20267;-58
2023/10/19 04:42:52;;;;;;;1.70;1.60;;;;;;;9.92;100.00;98329.94;5111915;28;20171;-59
2023/10/19 04:45:18;;;;;;;2.03;1.83;;;;;;;9.74;100.00;98318.25;5111783;28;20270;-59
2023/10/19 04:47:43;;;;;;;1.63;1.52;;;;;;;9.68;100.00;98328.16;5111571;28;20538;-58
2023/10/19 04:50:12;;;;;;;1.88;1.77;;;;;;;9.51;100.00;98297.47;5111816;28;20212;-60
2023/10/19 04:52:38;;;;;;;2.40;1.70;;;;;;;9.66;100.00;98313.72;5111447;28;20172;-61
2023/10/19 04:55:04;;;;;;;3.03;1.75;;;;;;;9.38;100.00;98299.19;5111796;28;20199;-58
2023/10/19 04:57:30;;;;;;;2.15;1.77;;;;;;;9.38;100.00;98303.53;5111714;28;20172;-58
2023/10/19 04:59:57;;;;;;;2.70;2.00;;;;;;;9.51;100.00;98319.88;5111643;28;20182;-58
2023/10/19 05:02:22;;;;;;;2.35;2.20;;;;;;;9.48;100.00;98318.31;5111615;28;20190;-58
2023/10/19 05:04:48;;;;;;;1.90;1.80;;;;;;;9.54;100.00;98323.09;5111670;28;20177;-59
2023/10/19 05:07:16;;;;;;;2.88;1.90;;;;;;;9.66;100.00;98344.72;5111572;28;20190;-59
2023/10/19 05:09:42;;;;;;;2.00;1.90;;;;;;;9.58;100.00;98337.47;5111502;28;20168;-58
2023/10/19 05:12:09;;;;;;;3.92;2.00;;;;;;;9.62;100.00;98336.31;5111621;28;20240;-59
2023/10/19 05:14:41;;;;;;;1.73;1.63;;;;;;;9.57;100.00;98330.66;5068119;28;20299;-59
2023/10/19 05:17:08;;;;;;;1.63;1.52;;;;;;;9.72;100.00;98342.53;5068510;28;20196;-60
2023/10/19 05:19:35;;;;;;;2.03;1.92;;;;;;;9.77;100.00;98337.91;5068477;28;20218;-58
2023/10/19 05:22:02;;;;;;;1.70;1.60;;;;;;;9.85;100.00;98346.78;5068297;28;20185;-59
2023/10/19 05:24:29;;;;;;;1.60;1.50;;;;;;;9.92;100.00;98349.81;5067974;28;20284;-59
2023/10/19 05:26:55;;;;;;;3.13;1.50;;;;;;;9.88;100.00;98330.25;5068477;28;20189;-60
2023/10/19 05:29:21;;;;;;;2.00;1.90;;;;;;;9.78;100.00;98332.63;5068416;28;20349;-59
2023/10/19 05:31:47;;;;;;;1.67;1.58;;;;;;;9.97;100.00;98345.13;5068275;28;20702;-59
2023/10/19 05:34:12;;;;;;;1.60;1.50;;;;;;;9.98;100.00;98326.13;5068190;28;20304;-60
2023/10/19 05:36:39;;;;;;;1.92;1.83;;;;;;;9.93;100.00;98335.94;5068321;28;20177;-59
2023/10/19 05:39:07;;;;;;;1.40;1.40;;;;;;;10.01;100.00;98346.59;5068211;28;20169;-60
2023/10/19 05:41:33;;;;;;;1.85;1.75;;;;;;;10.04;100.00;98336.91;5068211;28;20287;-59
2023/10/19 05:43:59;;;;;;;1.40;1.40;;;;;;;10.00;100.00;98324.25;5068157;28;20181;-59
2023/10/19 05:46:25;;;;;;;1.67;1.58;;;;;;;10.20;100.00;98336.69;5104783;28;20194;-59
2023/10/19 05:48:51;;;;;;;1.55;1.50;;;;;;;10.31;100.00;98344.53;5111188;28;20168;-59
2023/10/19 05:51:17;;;;;;;2.17;1.48;;;;;;;10.49;100.00;98358.78;5111110;28;20215;-59
2023/10/19 05:53:44;;;;;;;1.70;1.60;;;;;;;10.34;100.00;98339.19;5111002;28;20191;-59
2023/10/19 05:56:10;;;;;;;1.70;1.60;;;;;;;10.41;100.00;98337.81;5111195;28;20273;-59
2023/10/19 05:58:36;;;;;;;1.83;1.50;;;;;;;10.46;100.00;98343.50;5110084;28;20642;-60
2023/10/19 06:01:02;;;;;;;1.83;1.73;;;;;;;10.63;100.00;98356.09;5105417;28;20188;-60
2023/10/19 06:03:27;;;;;;;1.60;1.50;;;;;;;10.41;100.00;98319.72;5110874;28;20531;-59
2023/10/19 06:05:56;;;;;;;1.40;1.40;;;;;;;10.49;100.00;98317.41;5110777;28;20248;-60
2023/10/19 06:08:22;;;;;;;2.67;1.52;;;;;;;10.65;100.00;98328.34;5067534;28;20225;-59
2023/10/19 06:10:52;;;;;;;1.60;1.55;;;;;;;10.85;100.00;98351.09;5067686;28;20318;-59
2023/10/19 06:13:17;;;;;;;1.60;1.50;;;;;;;10.79;100.00;98341.16;5067756;28;20201;-60
2023/10/19 06:15:42;;;;;;;1.50;1.40;;;;;;;10.85;100.00;98341.53;5067848;28;20205;-58
2023/10/19 06:18:10;;;;;;;2.58;1.52;;;;;;;10.94;100.00;98347.81;5068124;28;20181;-59
2023/10/19 06:20:35;;;;;;;1.70;1.70;;;;;;;10.89;100.00;98335.22;5067815;28;20205;-58
2023/10/19 06:23:04;;;;;;;1.45;1.45;;;;;;;10.99;100.00;98348.34;5067806;28;20407;-59
2023/10/19 06:25:30;;;;;;;1.58;1.48;;;;;;;10.69;100.00;98314.28;5067888;28;20185;-58
2023/10/19 06:27:59;;;;;;;1.67;1.50;;;;;;;10.89;100.00;98336.97;5067783;28;20193;-58
2023/10/19 06:30:25;;;;;;;1.63;1.52;;;;;;;10.77;100.00;98311.97;5068054;28;20205;-59
2023/10/19 06:32:53;;;;;;;1.33;1.33;;;;;;;10.77;100.00;98301.59;5067637;28;20246;-58
2023/10/19 06:35:19;;;;;;;3.42;1.90;;;;;;;10.98;100.00;98315.63;5068117;28;20270;-59
2023/10/19 06:37:45;;;;;;;2.03;1.92;;;;;;;11.20;100.00;98344.22;5071360;28;20191;-59
2023/10/19 06:40:13;;;;;;;1.60;1.50;;;;;;;11.30;100.00;98345.19;5107922;28;20195;-59
2023/10/19 06:42:39;;;;;;;1.77;1.70;;;;;;;11.39;100.00;98345.34;5114329;28;20164;-59
2023/10/19 06:45:05;;;;;;;1.58;1.58;;;;;;;11.37;100.00;98323.91;5114311;28;20198;-59
2023/10/19 06:47:30;;;;;;;1.50;1.40;;;;;;;11.40;100.00;98338.41;5114261;28;20289;-59
2023/10/19 06:49:56;;;;;;;1.85;1.55;;;;;;;11.66;100.00;98355.47;5114321;28;20171;-59
2023/10/19 06:52:22;;;;;;;1.70;1.70;;;;;;;11.55;100.00;98311.38;5113974;28;20171;-59
2023/10/19 06:54:47;;;;;;;1.75;1.65;;;;;;;11.64;100.00;98313.31;5113857;28;20208;-59
2023/10/19 06:57:12;;;;;;;2.15;1.52;;;;;;;11.65;100.00;98315.81;5113843;28;20235;-59
2023/10/19 06:59:38;;;;;;;1.70;1.40;;;;;;;11.89;100.00;98328.69;5113532;28;20216;-59
2023/10/19 07:02:04;;;;;;;1.77;1.52;;;;;;;11.87;100.00;98315.03;5113766;28;20220;-59
2023/10/19 07:04:30;;;;;;;1.60;1.50;;;;;;;12.18;100.00;98353.25;5113765;28;20187;-59
2023/10/19 07:06:56;;;;;;;3.38;1.95;;;;;;;12.13;100.00;98353.59;5113716;28;20180;-58
2023/10/19 07:09:23;;;;;;;1.48;1.38;;;;;;;12.29;100.00;98356.69;5113619;28;20176;-59
2023/10/19 07:11:52;;;;;;;1.33;1.30;;;;;;;12.41;100.00;98360.94;5113540;28;20188;-59
2023/10/19 07:14:19;;;;;;;2.95;1.35;;;;;;;12.47;100.00;98355.28;5069980;28;20225;-59
2023/10/19 07:16:44;;;;;;;1.52;1.42;;;;;;;12.64;100.00;98361.75;5070373;28;20264;-59
2023/10/19 07:19:10;;;;;;;1.70;1.60;;;;;;;12.78;100.00;98374.50;5070458;28;20283;-58
2023/10/19 07:21:37;;;;;;;2.05;1.95;;;;;;;12.79;100.00;98335.44;5070317;28;20578;-58
2023/10/19 07:24:05;;;;;;;3.15;2.75;;;;;;;12.92;100.00;98330.09;5010492;28;20201;-58
2023/10/19 07:26:33;;;;;;;3.80;2.90;;;;;;;13.19;100.00;98353.91;5010667;28;20363;-58
2023/10/19 07:28:59;;;;;;;4.20;3.55;;;;;;;13.38;100.00;98365.31;5010704;28;20195;-59
2023/10/19 07:31:27;;;;;;;11.20;8.75;;;;;;;13.60;100.00;98369.59;5010606;28;20183;-59
2023/10/19 07:33:55;;;;;;;14.77;9.98;;;;;;;13.51;100.00;98329.59;5010452;28;20194;-59
2023/10/19 07:36:21;;;;;;;12.52;9.98;;;;;;;13.72;100.00;98337.41;5010275;28;20180;-59
2023/10/19 07:38:47;;;;;;;15.50;10.48;;;;;;;13.92;100.00;98350.41;5009906;28;20199;-59
2023/10/19 07:41:13;;;;;;;15.18;11.15;;;;;;;13.84;100.00;98341.59;5010503;28;20638;-59
2023/10/19 07:43:39;;;;;;;15.93;10.50;;;;;;;13.87;100.00;98330.91;5010410;28;20226;-59
2023/10/19 07:46:04;;;;;;;13.90;9.73;;;;;;;14.00;100.00;98344.56;5042771;28;20229;-59
2023/10/19 07:48:30;;;;;;;14.02;9.95;;;;;;;13.98;100.00;98331.69;5049889;28;20597;-59
2023/10/19 07:50:55;;;;;;;10.88;9.48;;;;;;;14.08;100.00;98335.19;5010096;28;20183;-59
2023/10/19 07:53:21;;;;;;;12.00;9.55;;;;;;;14.16;100.00;98324.09;5010182;28;20191;-59
2023/10/19 07:55:47;;;;;;;11.57;9.65;;;;;;;14.22;100.00;98318.41;5042858;28;20250;-59
2023/10/19 07:58:12;;;;;;;13.43;9.65;;;;;;;14.49;100.00;98350.75;5049863;28;20288;-59
2023/10/19 08:00:38;;;;;;;11.60;10.30;;;;;;;14.38;100.00;98313.56;5049664;28;20224;-59
2023/10/19 08:03:05;;;;;;;9.73;8.57;;;;;;;14.59;100.00;98335.16;5049759;28;20209;-60
2023/10/19 08:05:31;;;;;;;9.18;7.95;;;;;;;14.51;100.00;98306.34;5049567;28;20292;-59
2023/10/19 08:08:00;;;;;;;13.35;9.48;;;;;;;14.78;100.00;98345.66;5049630;28;20182;-59
2023/10/19 08:10:26;;;;;;;9.73;8.25;;;;;;;14.57;100.00;98303.25;5049486;28;20186;-59
2023/10/19 08:12:53;;;;;;;15.20;8.48;;;;;;;14.71;100.00;98316.72;5049395;28;20194;-59
2023/10/19 08:15:20;;;;;;;11.68;8.88;;;;;;;14.81;100.00;98341.00;5049394;28;20205;-59
2023/10/19 08:17:47;;;;;;;10.18;8.95;;;;;;;14.67;100.00;98306.69;5049256;28;20178;-59
2023/10/19 08:20:22;;;;;;;10.57;9.45;;;;;;;14.78;100.00;98335.22;5049660;28;20301;-59
2023/10/19 08:22:49;;;;;;;11.27;9.15;;;;;;;14.53;100.00;98294.03;5104191;28;20241;-59
2023/10/19 08:25:15;;;;;;;13.35;9.95;;;;;;;14.89;100.00;98332.53;5112349;28;20649;-59
2023/10/19 08:27:44;;;;;;;12.18;10.45;;;;;;;14.82;100.00;98310.56;5112392;28;20259;-59
2023/10/19 08:30:10;;;;;;;14.70;9.60;;;;;;;15.04;100.00;98323.38;5112246;28;20176;-59
2023/10/19 08:32:36;;;;;;;17.25;10.13;;;;;;;15.16;100.00;98328.31;5112219;28;20263;-58
2023/10/19 08:35:02;;;;;;;11.10;9.77;;;;;;;15.08;100.00;98320.34;5111798;28;20286;-59
2023/10/19 08:37:28;;;;;;;12.13;9.73;;;;;;;15.00;100.00;98293.31;5111963;28;20172;-59
2023/10/19 08:39:54;;;;;;;10.75;9.57;;;;;;;15.33;100.00;98327.69;5110546;28;20179;-59
2023/10/19 08:42:20;;;;;;;12.25;10.18;;;;;;;15.24;100.00;98289.38;5111159;28;20176;-58
2023/10/19 08:44:46;;;;;;;11.52;9.23;;;;;;;15.24;100.00;98312.00;5112028;28;20259;-58
2023/10/19 08:47:12;;;;;;;10.80;9.70;;;;;;;15.17;100.00;98301.28;5111886;28;20194;-58
2023/10/19 08:49:37;;;;;;;16.17;9.82;;;;;;;15.28;100.00;98297.75;5111826;28;20168;-58
2023/10/19 08:52:05;;;;;;;12.70;11.25;;;;;;;15.56;100.00;98323.03;5112051;28;20228;-58
2023/10/19 08:54:30;;;;;;;11.48;10.32;;;;;;;15.46;100.00;98285.69;5111739;28;20244;-59
2023/10/19 08:56:56;;;;;;;13.13;10.73;;;;;;;15.74;100.00;98334.41;5111771;28;20210;-58
2023/10/19 08:59:21;;;;;;;11.50;10.07;;;;;;;15.87;100.00;98337.56;5110943;28;20630;-58
2023/10/19 09:01:49;;;;;;;11.77;10.30;;;;;;;15.96;100.00;98328.88;5111758;28;20171;-58
2023/10/19 09:04:16;;;;;;;12.98;10.65;;;;;;;16.01;100.00;98318.84;5111528;28;20537;-59
2023/10/19 09:06:42;;;;;;;11.18;10.07;;;;;;;15.96;100.00;98305.38;5111706;28;20271;-58
2023/10/19 09:09:19;;;;;;;14.05;11.13;;;;;;;16.02;100.00;98310.03;5111592;28;20220;-58
2023/10/19 09:11:48;;;;;;;12.77;10.43;;;;;;;16.12;100.00;98329.13;5111777;28;20171;-59
2023/10/19 09:14:17;;;;;;;14.93;11.15;;;;;;;15.92;100.00;98288.38;5111211;28;20202;-58
2023/10/19 09:16:56;;;;;;;12.77;11.20;;;;;;;16.06;100.00;98307.03;5111492;28;20597;-58
2023/10/19 09:19:41;;;;;;;12.43;11.13;;;;;;;16.27;100.00;98318.06;5111497;28;20348;-58
2023/10/19 09:22:08;;;;;;;16.08;11.40;;;;;;;16.26;100.00;98292.94;5111456;28;20183;-59
2023/10/19 09:24:42;;;;;;;17.35;11.27;;;;;;;16.36;100.00;98285.06;5111601;28;20177;-59
2023/10/19 09:27:07;;;;;;;13.60;11.77;;;;;;;16.50;100.00;98295.06;5111455;28;20172;-59
2023/10/19 09:29:33;;;;;;;15.65;11.55;;;;;;;16.41;100.00;98282.88;5111446;28;20661;-59
2023/10/19 09:32:03;;;;;;;15.23;12.20;;;;;;;16.40;100.00;98291.69;5111367;28;20644;-59
2023/10/19 09:34:32;;;;;;;17.23;11.90;;;;;;;16.40;100.00;98279.47;5111518;28;20191;-59
2023/10/19 09:37:02;;;;;;;15.55;11.80;;;;;;;16.34;100.00;98242.59;5111600;28;20632;-60
2023/10/19 09:39:37;;;;;;;13.45;11.50;;;;;;;16.58;100.00;98279.50;5111548;28;20299;-60
2023/10/19 09:42:06;;;;;;;15.05;12.25;;;;;;;16.58;100.00;98282.09;5111171;28;20175;-60
2023/10/19 09:44:45;;;;;;;13.40;12.00;;;;;;;16.69;100.00;98274.06;5111329;28;20203;-60
2023/10/19 09:47:25;;;;;;;15.00;12.10;;;;;;;16.70;100.00;98260.03;5111406;28;20213;-59
2023/10/19 09:49:51;;;;;;;18.25;13.10;;;;;;;16.79;100.00;98265.19;5111233;28;20657;-59
2023/10/19 09:52:18;;;;;;;13.63;12.20;;;;;;;16.80;100.00;98250.34;5067922;28;20321;-59
2023/10/19 09:54:57;;;;;;;16.67;12.15;;;;;;;16.91;100.00;98269.25;5067991;28;20741;-57
2023/10/19 09:57:34;;;;;;;17.08;12.20;;;;;;;16.74;100.00;98230.03;5068110;28;20188;-59
2023/10/19 10:00:11;;;;;;;14.43;11.77;;;;;;;16.92;100.00;98254.41;5068171;28;20271;-59
2023/10/19 10:02:40;;;;;;;14.38;10.43;;;;;;;16.88;100.00;98247.81;5068029;28;20200;-59
2023/10/19 10:05:43;;;;;;;12.50;10.93;;;;;;;16.85;100.00;98261.19;5068080;28;20177;-59
2023/10/19 10:08:18;;;;;;;13.82;11.00;;;;;;;16.89;100.00;98257.28;5067963;28;20188;-59
2023/10/19 10:10:52;;;;;;;14.85;11.50;;;;;;;16.93;100.00;98230.72;5070748;28;20598;-59
2023/10/19 10:13:26;;;;;;;11.80;10.57;;;;;;;17.22;100.00;98240.97;5071679;28;20617;-59
2023/10/19 10:15:57;;;;;;;12.32;10.18;;;;;;;17.14;100.00;98201.69;5071806;28;20199;-59
2023/10/19 10:18:29;;;;;;;13.63;10.18;;;;;;;17.36;100.00;98224.72;5071690;28;20552;-59
2023/10/19 10:21:16;;;;;;;10.10;9.10;;;;;;;17.06;100.00;98184.13;5071652;28;20204;-59
2023/10/19 10:23:44;;;;;;;11.50;10.13;;;;;;;17.19;100.00;98208.09;5038612;28;20299;-60
2023/10/19 10:26:11;;;;;;;10.07;9.02;;;;;;;17.26;100.00;98205.69;5011708;28;20211;-59
2023/10/19 10:28:36;;;;;;;12.25;9.20;;;;;;;17.25;100.00;98217.13;5011659;28;20202;-59
2023/10/19 10:31:18;;;;;;;11.60;10.02;;;;;;;17.17;100.00;98220.50;5011637;28;20675;-59
2023/10/19 10:33:51;;;;;;;12.55;9.98;;;;;;;17.06;100.00;98193.75;5011783;28;20187;-59
2023/10/19 10:36:19;;;;;;;10.07;8.95;;;;;;;17.21;100.00;98176.56;5011717;28;20194;-59
2023/10/19 10:38:46;;;;;;;10.68;8.90;;;;;;;17.65;100.00;98217.44;5011690;28;20268;-59
2023/10/19 10:41:11;;;;;;;12.55;9.35;;;;;;;17.97;100.00;98218.50;5011567;28;20190;-59
2023/10/19 10:43:54;;;;;;;10.38;9.25;;;;;;;18.13;100.00;98205.44;5011520;28;20191;-59
2023/10/19 10:46:25;;;;;;;10.05;9.05;;;;;;;18.33;100.00;98221.78;5011532;28;20661;-59
2023/10/19 10:48:51;;;;;;;10.65;9.55;;;;;;;18.38;100.00;98216.88;5011397;28;20689;-59
2023/10/19 10:51:30;;;;;;;11.10;9.90;;;;;;;18.19;100.00;98190.94;5011436;28;20244;-60
2023/10/19 10:53:58;;;;;;;13.48;10.27;;;;;;;18.19;100.00;98196.16;4941100;28;20191;-59
2023/10/19 10:56:24;;;;;;;10.77;9.60;;;;;;;18.19;100.00;98196.16;4979410;28;20591;-59
2023/10/19 10:58:50;;;;;;;9.50;8.48;;;;;;;18.30;100.00;98208.97;5011144;28;20202;-59
2023/10/19 11:01:27;;;;;;;13.32;8.45;;;;;;;18.26;100.00;98191.94;5011195;28;20179;-59
2023/10/19 11:04:08;;;;;;;9.65;8.75;;;;;;;18.19;100.00;98185.69;5011254;28;20198;-59
2023/10/19 11:06:47;;;;;;;10.23;9.15;;;;;;;18.07;100.00;98156.34;5011571;28;20672;-60
2023/10/19 11:09:12;;;;;;;9.82;8.35;;;;;;;18.35;100.00;98177.91;5011129;28;20614;-58
2023/10/19 11:11:38;;;;;;;9.50;8.43;;;;;;;18.41;100.00;98193.00;5010925;28;20189;-58
2023/10/19 11:14:11;;;;;;;8.50;7.70;;;;;;;18.24;100.00;98158.03;5010672;28;20312;-59
2023/10/19 11:16:39;;;;;;;9.63;8.10;;;;;;;18.42;100.00;98171.06;5010984;28;20182;-59
2023/10/19 11:19:04;;;;;;;10.70;7.45;;;;;;;18.59;100.00;98183.25;5010725;28;20206;-58
2023/10/19 11:21:29;;;;;;;9.25;8.30;;;;;;;18.60;100.00;98156.03;5010005;28;20174;-59
2023/10/19 11:23:56;;;;;;;8.95;8.05;;;;;;;18.86;85.57;98169.81;5021411;28;20580;-59
2023/10/19 11:26:27;;;;;;;8.65;7.75;;;;;;;18.97;82.15;98157.25;5113367;28;20175;-59
2023/10/19 11:29:04;;;;;;;10.25;8.18;;;;;;;18.96;81.42;98154.78;5070124;28;20185;-59
2023/10/19 11:31:37;;;;;;;9.30;8.40;;;;;;;19.02;81.99;98154.13;5070186;28;20644;-59
2023/10/19 11:34:03;;;;;;;9.05;7.50;;;;;;;19.19;80.55;98169.69;5070141;28;20275;-60
2023/10/19 11:36:29;;;;;;;8.48;7.57;;;;;;;19.00;80.20;98119.38;5070501;28;20188;-60
2023/10/19 11:38:54;;;;;;;7.88;7.07;;;;;;;19.16;78.12;98148.19;5070166;28;20192;-58
2023/10/19 11:41:20;;;;;;;9.27;7.40;;;;;;;19.14;78.50;98137.91;5070103;28;20208;-59
2023/10/19 11:43:47;;;;;;;8.77;6.88;;;;;;;19.27;78.27;98155.78;5070099;28;20226;-59